createdAt,value
2022-10-17T00:04:54.178Z,100.00
2022-10-17T00:09:55.553Z,100.00
2022-10-17T00:14:56.806Z,100.00
2022-10-17T00:19:59.865Z,100.00
2022-10-17T00:25:01.119Z,100.00
2022-10-17T00:30:04.058Z,100.00
2022-10-17T00:35:06.430Z,100.00
2022-10-17T00:40:08.501Z,100.00
2022-10-17T00:45:23.067Z,100.00
2022-10-17T00:50:25.046Z,100.00
2022-10-17T00:55:30.858Z,100.00
2022-10-17T01:00:32.253Z,100.00
2022-10-17T01:05:34.284Z,100.00
2022-10-17T01:11:05.925Z,100.00
2022-10-17T01:16:32.192Z,100.00
2022-10-17T01:21:58.285Z,100.00
2022-10-17T01:27:26.526Z,100.00
2022-10-17T01:32:49.627Z,100.00
2022-10-17T01:38:09.610Z,100.00
2022-10-17T01:43:36.905Z,100.00
2022-10-17T01:48:42.775Z,100.00
2022-10-17T01:53:56.978Z,100.00
2022-10-17T01:59:03.126Z,100.00
2022-10-17T02:04:07.920Z,100.00
2022-10-17T02:09:24.483Z,100.00
2022-10-17T02:14:39.619Z,100.00
2022-10-17T02:20:12.805Z,100.00
2022-10-17T02:25:35.006Z,100.00
2022-10-17T02:30:58.788Z,100.00
2022-10-17T02:36:06.032Z,100.00
2022-10-17T02:41:11.226Z,100.00
2022-10-17T02:46:20.997Z,100.00
2022-10-17T02:51:52.173Z,100.00
2022-10-17T02:56:59.206Z,100.00
2022-10-17T03:02:04.554Z,100.00
2022-10-17T03:07:05.806Z,100.00
2022-10-17T03:12:08.505Z,100.00
2022-10-17T03:17:09.781Z,100.00
2022-10-17T03:22:11.056Z,100.00
2022-10-17T03:27:12.366Z,100.00
2022-10-17T03:32:13.647Z,100.00
2022-10-17T03:37:15.063Z,100.00
2022-10-17T03:42:16.317Z,100.00
2022-10-17T03:47:17.585Z,100.00
2022-10-17T03:52:19.009Z,100.00
2022-10-17T03:57:20.386Z,100.00
2022-10-17T04:02:21.873Z,100.00
2022-10-17T04:07:23.122Z,100.00
2022-10-17T04:12:24.420Z,100.00
2022-10-17T04:17:25.675Z,100.00
2022-10-17T04:22:27.597Z,100.00
2022-10-17T04:27:29.073Z,100.00
2022-10-17T04:32:30.780Z,100.00
2022-10-17T04:37:32.353Z,100.00
2022-10-17T04:42:33.644Z,100.00
2022-10-17T04:47:34.949Z,100.00
2022-10-17T04:52:37.420Z,100.00
2022-10-17T04:57:38.692Z,100.00
2022-10-17T05:02:39.994Z,100.00
2022-10-17T05:07:41.749Z,100.00
2022-10-17T05:12:43.122Z,100.00
2022-10-17T05:17:44.502Z,100.00
2022-10-17T05:22:45.964Z,100.00
2022-10-17T05:27:47.607Z,100.00
2022-10-17T05:32:53.312Z,100.00
2022-10-17T05:37:54.562Z,100.00
2022-10-17T05:42:55.952Z,100.00
2022-10-17T05:47:57.270Z,100.00
2022-10-17T05:52:58.517Z,100.00
2022-10-17T05:58:01.076Z,100.00
2022-10-17T06:03:02.389Z,100.00
2022-10-17T06:08:03.872Z,100.00
2022-10-17T06:13:05.186Z,100.00
2022-10-17T06:18:06.435Z,100.00
2022-10-17T06:23:07.713Z,100.00
2022-10-17T06:28:10.418Z,100.00
2022-10-17T06:33:11.665Z,100.00
2022-10-17T06:38:12.929Z,100.00
2022-10-17T06:43:14.603Z,100.00
2022-10-17T06:48:15.872Z,100.00
2022-10-17T06:53:17.234Z,100.00
2022-10-17T06:58:18.478Z,100.00
2022-10-17T07:03:19.737Z,100.00
2022-10-17T07:08:21.661Z,100.00
2022-10-17T07:13:23.617Z,98.74
2022-10-17T07:18:24.853Z,98.14
2022-10-17T07:23:26.239Z,94.45
2022-10-17T07:28:28.762Z,94.73
2022-10-17T07:33:30.081Z,93.74
2022-10-17T07:38:31.453Z,93.80
2022-10-17T07:43:33.870Z,91.29
2022-10-17T07:48:35.391Z,89.28
2022-10-17T07:53:42.653Z,87.27
2022-10-17T07:58:45.228Z,87.61
2022-10-17T08:03:48.454Z,85.30
2022-10-17T08:08:49.766Z,83.42
2022-10-17T08:13:51.029Z,81.90
2022-10-17T08:18:52.300Z,79.80
2022-10-17T08:23:53.777Z,77.68
2022-10-17T08:28:55.220Z,78.30
2022-10-17T08:33:56.645Z,76.46
2022-10-17T08:38:57.875Z,76.33
2022-10-17T08:44:12.235Z,75.39
2022-10-17T08:49:28.277Z,74.20
2022-10-17T08:54:47.640Z,73.74
2022-10-17T08:59:54.134Z,73.87
2022-10-17T09:05:24.036Z,71.83
2022-10-17T09:10:43.449Z,71.32
2022-10-17T09:15:57.389Z,69.92
2022-10-17T09:21:12.905Z,70.92
2022-10-17T09:26:14.936Z,71.97
2022-10-17T09:31:34.611Z,67.86
2022-10-17T09:36:39.388Z,66.89
2022-10-17T09:41:52.668Z,61.10
2022-10-17T09:47:12.548Z,56.14
2022-10-17T09:52:29.152Z,52.25
2022-10-17T09:57:52.382Z,48.76
2022-10-17T10:03:12.540Z,46.63
2022-10-17T10:08:19.233Z,48.19
2022-10-17T10:13:20.587Z,47.23
2022-10-17T10:18:25.158Z,44.29
2022-10-17T10:23:26.505Z,40.85
2022-10-17T10:28:36.213Z,32.64
2022-10-17T10:33:48.087Z,31.33
2022-10-17T10:38:55.008Z,30.80
2022-10-17T10:43:56.655Z,30.22
2022-10-17T10:49:00.402Z,29.74
2022-10-17T10:54:11.506Z,29.81
2022-10-17T10:59:25.940Z,26.63
2022-10-17T11:04:36.131Z,25.04
2022-10-17T11:09:40.366Z,23.49
2022-10-17T11:15:06.715Z,23.33
2022-10-17T11:20:19.690Z,22.57
2022-10-17T11:25:31.814Z,20.76
2022-10-17T11:35:49.769Z,19.79
2022-10-17T11:40:55.878Z,18.73
2022-10-17T11:46:04.387Z,19.35
2022-10-17T11:56:46.324Z,19.31
2022-10-17T12:01:54.817Z,18.60
2022-10-17T12:07:14.816Z,19.67
2022-10-17T12:12:28.527Z,19.30
2022-10-17T12:17:38.887Z,20.32
2022-10-17T12:22:47.381Z,20.27
2022-10-17T12:27:50.614Z,20.00
2022-10-17T12:33:30.492Z,20.08
2022-10-17T12:38:31.866Z,18.07
2022-10-17T12:43:39.668Z,17.72
2022-10-17T12:48:44.198Z,17.01
2022-10-17T12:54:15.010Z,17.18
2022-10-17T12:59:26.878Z,17.47
2022-10-17T13:04:29.700Z,18.07
2022-10-17T13:09:38.495Z,18.95
2022-10-17T13:14:42.680Z,22.11
2022-10-17T13:19:45.722Z,24.30
2022-10-17T13:24:48.362Z,21.99
2022-10-17T13:29:49.907Z,22.98
2022-10-17T13:35:09.704Z,23.75
2022-10-17T13:45:48.013Z,20.00
2022-10-17T13:50:53.393Z,19.71
2022-10-17T13:56:15.702Z,19.42
2022-10-17T14:01:21.332Z,19.65
2022-10-17T14:06:27.936Z,19.17
2022-10-17T14:11:38.680Z,20.24
2022-10-17T14:16:42.216Z,20.97
2022-10-17T14:21:49.039Z,21.34
2022-10-17T14:26:55.817Z,22.24
2022-10-17T14:32:10.731Z,23.37
2022-10-17T14:37:24.166Z,25.17
2022-10-17T14:42:26.170Z,28.45
2022-10-17T14:47:42.601Z,31.04
2022-10-17T14:53:02.071Z,35.45
2022-10-17T14:58:17.639Z,39.07
2022-10-17T15:03:19.333Z,41.33
2022-10-17T15:08:23.735Z,43.64
2022-10-17T15:13:28.042Z,45.69
2022-10-17T15:18:32.347Z,47.56
2022-10-17T15:23:33.668Z,48.06
2022-10-17T15:28:34.931Z,48.54
2022-10-17T15:33:36.213Z,48.74
2022-10-17T15:38:37.513Z,49.29
2022-10-17T15:43:38.779Z,50.09
2022-10-17T15:48:43.356Z,49.95
2022-10-17T15:53:45.038Z,50.94
2022-10-17T15:58:46.814Z,51.84
2022-10-17T16:03:50.147Z,53.17
2022-10-17T16:08:52.173Z,52.90
2022-10-17T16:13:55.741Z,53.88
2022-10-17T16:18:57.262Z,54.64
2022-10-17T16:23:59.498Z,55.54
2022-10-17T16:29:02.996Z,55.84
2022-10-17T16:34:06.356Z,57.68
2022-10-17T16:39:07.847Z,57.53
2022-10-17T16:44:14.022Z,58.05
2022-10-17T16:49:18.024Z,58.69
2022-10-17T16:54:19.301Z,59.07
2022-10-17T16:59:20.760Z,59.71
2022-10-17T17:04:22.097Z,60.76
2022-10-17T17:09:23.491Z,61.44
2022-10-17T17:14:24.946Z,62.27
2022-10-17T17:19:26.852Z,62.13
2022-10-17T17:24:28.554Z,62.51
2022-10-17T17:29:29.922Z,63.10
2022-10-17T17:34:35.666Z,63.60
2022-10-17T17:39:36.917Z,63.13
2022-10-17T17:44:38.254Z,63.19
2022-10-17T17:49:39.548Z,64.06
2022-10-17T17:54:41.156Z,66.05
2022-10-17T17:59:42.522Z,66.59
2022-10-17T18:04:43.767Z,67.17
2022-10-17T18:09:45.022Z,66.87
2022-10-17T18:14:47.725Z,67.61
2022-10-17T18:19:49.063Z,68.47
2022-10-17T18:24:50.342Z,68.79
2022-10-17T18:29:51.574Z,69.25
2022-10-17T18:34:52.833Z,69.25
2022-10-17T18:39:55.723Z,70.79
2022-10-17T18:44:57.021Z,71.90
2022-10-17T18:49:58.262Z,72.31
2022-10-17T18:54:59.526Z,72.88
2022-10-17T19:00:00.772Z,72.50
2022-10-17T19:05:02.280Z,73.20
2022-10-17T19:10:03.858Z,73.33
2022-10-17T19:15:05.418Z,73.06
2022-10-17T19:20:07.250Z,73.88
2022-10-17T19:25:09.070Z,74.09
2022-10-17T19:30:12.453Z,74.72
2022-10-17T19:35:14.035Z,75.08
2022-10-17T19:40:15.320Z,75.24
2022-10-17T19:45:16.694Z,75.76
2022-10-17T19:50:17.958Z,75.43
2022-10-17T19:55:19.282Z,76.15
2022-10-17T20:00:20.536Z,77.19
2022-10-17T20:05:25.904Z,77.60
2022-10-17T20:10:28.632Z,77.68
2022-10-17T20:15:30.069Z,78.30
2022-10-17T20:20:33.498Z,78.18
2022-10-17T20:25:37.987Z,78.53
2022-10-17T20:30:45.420Z,78.87
2022-10-17T20:35:46.663Z,78.86
2022-10-17T20:40:47.964Z,78.99
2022-10-17T20:45:51.238Z,79.33
2022-10-17T20:50:54.138Z,79.72
2022-10-17T20:56:08.128Z,79.33
2022-10-17T21:01:10.682Z,80.30
2022-10-17T21:06:12.318Z,81.22
2022-10-17T21:11:15.174Z,81.02
2022-10-17T21:16:18.780Z,81.27
2022-10-17T21:21:29.002Z,81.49
2022-10-17T21:26:33.796Z,82.19
2022-10-17T21:31:39.839Z,82.27
2022-10-17T21:36:41.440Z,82.18
2022-10-17T21:41:44.148Z,82.19
2022-10-17T21:46:46.585Z,82.50
2022-10-17T21:51:48.757Z,82.84
2022-10-17T21:56:50.982Z,83.17
2022-10-17T22:01:52.353Z,83.33
2022-10-17T22:06:53.644Z,82.90
2022-10-17T22:11:56.460Z,83.34
2022-10-17T22:16:57.697Z,83.64
2022-10-17T22:21:58.990Z,84.19
2022-10-17T22:27:00.420Z,83.92
2022-10-17T22:32:01.977Z,84.09
2022-10-17T22:37:03.221Z,84.21
2022-10-17T22:42:04.474Z,83.99
2022-10-17T22:47:05.786Z,84.50
2022-10-17T22:52:07.135Z,84.28
2022-10-17T22:57:08.369Z,84.86
2022-10-17T23:02:09.619Z,84.18
2022-10-17T23:07:12.389Z,84.56
2022-10-17T23:12:13.617Z,85.21
2022-10-17T23:17:15.310Z,85.15
2022-10-17T23:22:16.821Z,85.13
2022-10-17T23:27:18.140Z,85.19
2022-10-17T23:32:20.870Z,84.92
2022-10-17T23:37:22.117Z,84.92
2022-10-17T23:42:23.543Z,85.81
2022-10-17T23:47:24.964Z,85.69
2022-10-17T23:52:26.254Z,85.80
2022-10-17T23:57:27.616Z,85.99
